Time;durP1;ratioP1;P1;durP2;ratioP2;P2;SDS_P1;SDS_P2;PMS_P1;PMS_P2;Temp;Humidity;BMP_temperature;BMP_pressure;BME280_temperature;BME280_humidity;BME280_pressure;Samples;Min_cycle;Max_cycle;Signal;HPM_P1;HPM_P2
2022/10/15 00:00:45;;;;;;;17.92;11.95;;;13.20;99.90;;;;;;5073503;28;20821;-55
2022/10/15 00:03:11;;;;;;;16.48;12.07;;;13.20;99.90;;;;;;5082032;28;20033;-53
2022/10/15 00:05:38;;;;;;;16.58;11.18;;;13.20;99.90;;;;;;5071978;28;20466;-55
2022/10/15 00:08:05;;;;;;;26.10;10.85;;;13.10;99.90;;;;;;5084304;28;20085;-53
2022/10/15 00:10:30;;;;;;;19.75;11.18;;;13.20;99.90;;;;;;5075769;28;20024;-55
2022/10/15 00:12:56;;;;;;;10.38;9.43;;;13.20;99.90;;;;;;5086404;28;20113;-54
2022/10/15 00:15:22;;;;;;;12.52;9.45;;;13.10;99.90;;;;;;5073910;28;20031;-52
2022/10/15 00:17:47;;;;;;;12.20;9.15;;;13.10;99.90;;;;;;5086325;28;20016;-55
2022/10/15 00:20:13;;;;;;;10.88;8.27;;;13.10;99.90;;;;;;5072881;28;20115;-50
2022/10/15 00:22:39;;;;;;;16.33;8.95;;;13.10;99.90;;;;;;5086707;28;20475;-52
2022/10/15 00:25:06;;;;;;;13.27;9.73;;;13.00;99.90;;;;;;5077045;28;20070;-53
2022/10/15 00:27:33;;;;;;;16.58;9.77;;;12.90;99.90;;;;;;5082892;28;20048;-55
2022/10/15 00:29:59;;;;;;;12.93;9.43;;;12.90;99.90;;;;;;5079240;28;20489;-55
2022/10/15 00:32:25;;;;;;;12.98;9.48;;;12.90;99.90;;;;;;5081051;28;20608;-54
2022/10/15 00:34:50;;;;;;;14.80;9.75;;;12.80;99.90;;;;;;5080785;28;20132;-50
2022/10/15 00:37:16;;;;;;;18.05;9.57;;;12.80;99.90;;;;;;5078984;28;20035;-53
2022/10/15 00:39:42;;;;;;;9.95;9.02;;;12.80;99.90;;;;;;5083788;28;20016;-51
2022/10/15 00:42:09;;;;;;;11.40;9.23;;;12.70;99.90;;;;;;5076232;28;20815;-55
2022/10/15 00:44:57;;;;;;;12.63;9.35;;;12.70;99.90;;;;;;5085922;28;20427;-53
2022/10/15 00:47:32;;;;;;;13.85;9.45;;;12.60;99.90;;;;;;5076031;28;20040;-54
2022/10/15 00:50:04;;;;;;;13.85;9.35;;;12.60;99.90;;;;;;5085113;28;20028;-52
2022/10/15 00:52:44;;;;;;;13.15;9.45;;;12.60;99.90;;;;;;5076491;28;20028;-51
2022/10/15 00:55:16;;;;;;;10.95;9.02;;;12.60;99.90;;;;;;5083582;28;20027;-52
2022/10/15 00:57:43;;;;;;;9.80;8.90;;;12.60;99.90;;;;;;5076369;28;20054;-51
2022/10/15 01:00:14;;;;;;;10.65;9.55;;;12.60;99.90;;;;;;5084591;28;20021;-53
2022/10/15 01:02:40;;;;;;;10.02;9.13;;;12.60;99.90;;;;;;5074153;28;20034;-55
2022/10/15 01:05:07;;;;;;;10.27;9.20;;;12.60;99.90;;;;;;5084719;28;20040;-51
2022/10/15 01:07:32;;;;;;;10.02;9.10;;;12.60;99.90;;;;;;5074868;28;20032;-53
2022/10/15 01:09:59;;;;;;;10.45;9.45;;;12.50;99.90;;;;;;5085755;28;20028;-55
2022/10/15 01:12:56;;;;;;;9.38;8.35;;;12.50;99.90;;;;;;5077827;28;20032;-55
2022/10/15 01:15:24;;;;;;;9.57;8.68;;;12.60;99.90;;;;;;5066664;28;20025;-55
2022/10/15 01:17:56;;;;;;;9.38;8.23;;;12.60;99.90;;;;;;5080373;28;20024;-53
2022/10/15 01:20:49;;;;;;;9.90;8.90;;;12.60;99.90;;;;;;5084652;28;20028;-51
2022/10/15 01:23:52;;;;;;;9.63;8.73;;;12.60;99.90;;;;;;5073615;28;20028;-49
2022/10/15 01:26:42;;;;;;;9.40;8.50;;;12.70;99.90;;;;;;5082426;28;20174;-46
2022/10/15 01:29:47;;;;;;;9.55;8.65;;;12.70;99.90;;;;;;5078183;28;20751;-51
2022/10/15 01:32:24;;;;;;;10.15;9.15;;;12.70;99.90;;;;;;5076281;28;20421;-52
2022/10/15 01:34:58;;;;;;;9.80;8.80;;;12.80;99.90;;;;;;5083636;28;20811;-50
2022/10/15 01:37:33;;;;;;;11.20;9.90;;;12.80;99.90;;;;;;5076142;28;20036;-53
2022/10/15 01:40:07;;;;;;;10.25;9.25;;;12.80;99.90;;;;;;5083591;28;20024;-50
2022/10/15 01:42:44;;;;;;;10.10;9.10;;;12.80;99.90;;;;;;5076834;28;20020;-50
2022/10/15 01:45:15;;;;;;;10.40;9.40;;;12.80;99.90;;;;;;5082014;28;20179;-51
2022/10/15 01:47:50;;;;;;;10.57;9.52;;;12.90;99.90;;;;;;5077184;28;20036;-51
2022/10/15 01:50:19;;;;;;;9.85;8.95;;;12.90;99.90;;;;;;5081903;28;20089;-54
2022/10/15 01:52:45;;;;;;;10.00;9.00;;;12.90;99.90;;;;;;5077325;28;20032;-55
2022/10/15 01:55:14;;;;;;;10.95;9.85;;;12.90;99.90;;;;;;5080113;28;20024;-48
2022/10/15 01:57:42;;;;;;;12.25;10.95;;;13.00;99.90;;;;;;5079344;28;20062;-53
2022/10/15 02:00:09;;;;;;;11.40;10.20;;;13.00;99.90;;;;;;5078371;28;20028;-55
2022/10/15 02:02:34;;;;;;;11.63;10.43;;;13.00;99.90;;;;;;5080819;28;20035;-54
2022/10/15 02:05:00;;;;;;;12.32;10.65;;;13.00;99.90;;;;;;5073327;28;20032;-53
2022/10/15 02:07:56;;;;;;;13.02;11.15;;;13.00;99.90;;;;;;5066109;28;20042;-55
2022/10/15 02:10:46;;;;;;;12.20;10.35;;;13.00;99.90;;;;;;5076867;28;20794;-56
2022/10/15 02:13:11;;;;;;;11.43;10.23;;;13.00;99.90;;;;;;5078015;28;20027;-53
2022/10/15 02:16:01;;;;;;;11.07;9.90;;;13.10;99.90;;;;;;5077577;28;20466;-52
2022/10/15 02:18:37;;;;;;;12.65;10.98;;;13.00;99.90;;;;;;5074974;28;20095;-52
2022/10/15 02:21:46;;;;;;;11.63;10.43;;;13.10;99.90;;;;;;5081883;28;20028;-49
2022/10/15 02:24:20;;;;;;;12.23;10.82;;;13.10;99.90;;;;;;5073233;28;20024;-52
2022/10/15 02:26:48;;;;;;;13.73;11.63;;;13.10;99.90;;;;;;5083639;28;20091;-55
2022/10/15 02:29:18;;;;;;;14.18;11.35;;;13.10;99.90;;;;;;5074155;28;20021;-51
2022/10/15 02:31:45;;;;;;;14.50;12.20;;;13.00;99.90;;;;;;5066416;28;20020;-52
2022/10/15 02:34:18;;;;;;;16.25;13.45;;;13.00;99.90;;;;;;5071327;28;20028;-54
2022/10/15 02:36:45;;;;;;;16.70;13.55;;;13.00;99.90;;;;;;5068284;28;20044;-53
2022/10/15 02:39:17;;;;;;;16.85;14.20;;;13.00;99.90;;;;;;5070111;28;20020;-52
2022/10/15 02:41:43;;;;;;;14.32;12.80;;;12.90;99.90;;;;;;5069679;28;20119;-54
2022/10/15 02:44:08;;;;;;;15.70;14.10;;;12.90;99.90;;;;;;5069223;28;20201;-55
2022/10/15 02:46:34;;;;;;;17.13;14.35;;;12.90;99.90;;;;;;5071924;28;20040;-54
2022/10/15 02:48:59;;;;;;;16.92;13.57;;;12.90;99.90;;;;;;5066641;28;20089;-53
2022/10/15 02:51:25;;;;;;;13.93;12.30;;;12.80;99.90;;;;;;5074714;28;20105;-54
2022/10/15 02:53:50;;;;;;;15.45;13.20;;;12.80;99.90;;;;;;5064704;28;20656;-51
2022/10/15 02:56:16;;;;;;;17.25;13.55;;;12.80;99.90;;;;;;5075033;28;20054;-48
2022/10/15 02:58:41;;;;;;;16.25;13.55;;;12.80;99.90;;;;;;5064664;28;20028;-50
2022/10/15 03:01:07;;;;;;;14.32;12.45;;;12.70;99.90;;;;;;5075414;28;20020;-54
2022/10/15 03:03:32;;;;;;;14.80;13.15;;;12.70;99.90;;;;;;5064345;28;20028;-54
2022/10/15 03:05:58;;;;;;;15.77;13.80;;;12.70;99.90;;;;;;5076167;28;20028;-54
2022/10/15 03:08:23;;;;;;;18.10;14.18;;;12.70;99.90;;;;;;5062489;28;20499;-54
2022/10/15 03:10:49;;;;;;;15.43;12.80;;;12.70;99.90;;;;;;5075396;28;20008;-56
2022/10/15 03:13:14;;;;;;;17.45;14.30;;;12.70;99.90;;;;;;5064388;28;20120;-50
2022/10/15 03:15:40;;;;;;;16.70;14.00;;;12.70;99.90;;;;;;5071896;28;20490;-54
2022/10/15 03:18:06;;;;;;;16.55;13.73;;;12.70;99.90;;;;;;5070274;28;20032;-53
2022/10/15 03:20:32;;;;;;;17.52;13.70;;;12.70;99.90;;;;;;5076986;28;20028;-56
2022/10/15 03:22:57;;;;;;;17.95;14.82;;;12.70;99.90;;;;;;5077151;28;20043;-54
2022/10/15 03:25:22;;;;;;;17.15;13.63;;;12.70;99.90;;;;;;5078915;28;20028;-53
2022/10/15 03:27:48;;;;;;;17.58;14.07;;;12.70;99.90;;;;;;5074753;28;20530;-54
2022/10/15 03:30:14;;;;;;;15.43;13.15;;;12.70;99.90;;;;;;5081117;28;20062;-53
2022/10/15 03:32:39;;;;;;;18.40;14.32;;;12.70;99.90;;;;;;5072750;28;20528;-55
2022/10/15 03:35:05;;;;;;;17.05;13.73;;;12.80;99.90;;;;;;5082700;28;20115;-53
2022/10/15 03:37:31;;;;;;;17.13;14.45;;;12.80;99.90;;;;;;5071492;28;20702;-52
2022/10/15 03:39:56;;;;;;;17.42;14.13;;;12.80;99.90;;;;;;5084252;28;20172;-52
2022/10/15 03:42:22;;;;;;;17.40;14.07;;;12.80;99.90;;;;;;5078941;28;20024;-54
2022/10/15 03:44:47;;;;;;;17.80;13.60;;;12.90;99.90;;;;;;5087422;28;20767;-55
2022/10/15 03:47:13;;;;;;;18.50;14.55;;;12.90;99.90;;;;;;5082347;28;20044;-51
2022/10/15 03:49:38;;;;;;;19.73;15.50;;;12.90;99.90;;;;;;5066671;28;20463;-53
2022/10/15 03:52:04;;;;;;;19.90;15.60;;;12.90;99.90;;;;;;5077601;28;20119;-53
2022/10/15 03:54:29;;;;;;;19.17;16.35;;;13.00;99.90;;;;;;5069256;28;20029;-52
2022/10/15 03:56:55;;;;;;;20.77;15.75;;;13.00;99.90;;;;;;5074278;28;20020;-50
2022/10/15 03:59:21;;;;;;;18.48;15.20;;;13.00;99.90;;;;;;5072084;28;20710;-51
2022/10/15 04:01:46;;;;;;;17.73;14.65;;;13.00;99.90;;;;;;5072079;28;20479;-50
2022/10/15 04:04:12;;;;;;;17.17;14.52;;;13.00;99.90;;;;;;5074083;28;20032;-50
2022/10/15 04:06:38;;;;;;;17.38;14.15;;;13.00;99.90;;;;;;5069647;28;20111;-55
2022/10/15 04:09:04;;;;;;;18.90;15.18;;;13.00;99.90;;;;;;5077055;28;20566;-51
2022/10/15 04:11:29;;;;;;;16.38;13.95;;;13.00;99.90;;;;;;5067116;28;20721;-51
2022/10/15 04:13:55;;;;;;;18.15;13.93;;;13.00;99.90;;;;;;5078311;28;20016;-50
2022/10/15 04:16:21;;;;;;;17.80;14.13;;;13.00;99.90;;;;;;5067952;28;20028;-56
2022/10/15 04:18:46;;;;;;;19.60;15.20;;;13.00;99.90;;;;;;5077891;28;20032;-52
2022/10/15 04:21:12;;;;;;;17.25;14.15;;;13.00;99.90;;;;;;5066563;28;20089;-51
2022/10/15 04:23:38;;;;;;;18.17;14.13;;;12.90;99.90;;;;;;5079769;28;20077;-54
2022/10/15 04:26:03;;;;;;;18.23;14.65;;;12.90;99.90;;;;;;5066483;28;20044;-54
2022/10/15 04:28:35;;;;;;;19.10;14.50;;;12.90;99.90;;;;;;5079102;28;20111;-52
2022/10/15 04:31:01;;;;;;;16.30;13.82;;;12.90;99.90;;;;;;5066804;28;20033;-54
2022/10/15 04:33:27;;;;;;;17.65;14.25;;;12.90;99.90;;;;;;5075842;28;20490;-47
2022/10/15 04:36:00;;;;;;;18.20;14.63;;;13.00;99.90;;;;;;5069230;28;20029;-50
2022/10/15 04:38:26;;;;;;;15.55;13.57;;;13.00;99.90;;;;;;5075637;28;20030;-52
2022/10/15 04:41:03;;;;;;;16.77;14.13;;;13.00;99.90;;;;;;5069711;28;20032;-52
2022/10/15 04:43:29;;;;;;;16.92;13.55;;;13.00;99.90;;;;;;5074448;28;20016;-52
2022/10/15 04:45:59;;;;;;;19.00;14.05;;;13.00;99.90;;;;;;5070661;28;20039;-53
2022/10/15 04:48:27;;;;;;;18.05;14.23;;;13.00;99.90;;;;;;5071841;28;20028;-53
2022/10/15 04:50:53;;;;;;;16.65;14.10;;;13.00;99.90;;;;;;5073387;28;20024;-54
2022/10/15 04:53:19;;;;;;;15.77;13.88;;;13.10;99.90;;;;;;5068274;28;20043;-55
2022/10/15 04:55:45;;;;;;;17.13;14.60;;;13.10;99.90;;;;;;5075083;28;20888;-54
2022/10/15 04:58:10;;;;;;;15.18;13.52;;;13.10;99.90;;;;;;5067941;28;20027;-53
2022/10/15 05:00:37;;;;;;;16.45;14.02;;;13.10;99.90;;;;;;5077088;28;20062;-53
2022/10/15 05:03:05;;;;;;;16.48;14.15;;;13.10;99.90;;;;;;5067608;28;20031;-53
2022/10/15 05:05:31;;;;;;;16.42;14.07;;;13.20;99.90;;;;;;5077610;28;20048;-48
2022/10/15 05:08:04;;;;;;;15.82;14.07;;;13.20;99.90;;;;;;5065547;28;20166;-54
2022/10/15 05:10:29;;;;;;;17.17;14.02;;;13.20;99.90;;;;;;5073853;28;20107;-52
2022/10/15 05:12:55;;;;;;;15.48;13.35;;;13.20;99.90;;;;;;5086735;28;20111;-54
2022/10/15 05:15:20;;;;;;;16.23;13.73;;;13.20;99.90;;;;;;5072149;28;20719;-53
2022/10/15 05:17:46;;;;;;;16.17;14.30;;;13.20;99.90;;;;;;5086152;28;20148;-54
2022/10/15 05:20:11;;;;;;;15.27;13.45;;;13.20;99.90;;;;;;5073210;28;20430;-55
2022/10/15 05:22:37;;;;;;;17.73;13.80;;;13.20;99.90;;;;;;5084754;28;20478;-53
2022/10/15 05:25:03;;;;;;;16.38;13.70;;;13.30;99.90;;;;;;5076687;28;20024;-51
2022/10/15 05:27:28;;;;;;;15.77;13.63;;;13.30;99.90;;;;;;5082232;28;20052;-55
2022/10/15 05:29:54;;;;;;;17.13;14.25;;;13.30;99.90;;;;;;5078284;28;20463;-54
2022/10/15 05:32:19;;;;;;;17.00;14.02;;;13.30;99.90;;;;;;5079474;28;20024;-52
2022/10/15 05:34:45;;;;;;;16.30;14.60;;;13.30;99.90;;;;;;5082259;28;20023;-52
2022/10/15 05:37:10;;;;;;;14.50;12.65;;;13.40;99.90;;;;;;5076378;28;20025;-51
2022/10/15 05:39:36;;;;;;;16.17;13.98;;;13.40;99.90;;;;;;5084347;28;20131;-54
2022/10/15 05:42:01;;;;;;;16.52;13.90;;;13.40;99.90;;;;;;5067758;28;20127;-54
2022/10/15 05:44:27;;;;;;;16.38;14.50;;;13.40;99.90;;;;;;5066133;28;20500;-56
2022/10/15 05:46:52;;;;;;;15.98;14.30;;;13.40;99.90;;;;;;5076830;28;20487;-55
2022/10/15 05:49:18;;;;;;;17.52;13.85;;;13.40;99.90;;;;;;5065375;28;20119;-48
2022/10/15 05:51:44;;;;;;;15.35;13.05;;;13.50;99.90;;;;;;5077958;28;20020;-54
2022/10/15 05:54:09;;;;;;;15.25;13.65;;;13.50;99.90;;;;;;5065231;28;20021;-55
2022/10/15 05:56:35;;;;;;;16.52;14.00;;;13.50;99.90;;;;;;5076585;28;20391;-50
2022/10/15 05:59:02;;;;;;;15.13;13.52;;;13.50;99.90;;;;;;5065207;28;20054;-52
2022/10/15 06:01:27;;;;;;;17.67;14.40;;;13.50;99.90;;;;;;5075122;28;20637;-52
2022/10/15 06:03:53;;;;;;;17.35;14.68;;;13.60;99.90;;;;;;5065900;28;20027;-53
2022/10/15 06:06:25;;;;;;;15.88;13.98;;;13.50;99.90;;;;;;5071720;28;20135;-51
2022/10/15 06:08:51;;;;;;;14.30;12.90;;;13.60;99.90;;;;;;5068292;28;20025;-50
2022/10/15 06:11:18;;;;;;;15.57;13.40;;;13.60;99.90;;;;;;5070572;28;20035;-55
2022/10/15 06:13:44;;;;;;;17.50;15.30;;;13.60;99.90;;;;;;5070608;28;20025;-55
2022/10/15 06:16:11;;;;;;;14.98;13.48;;;13.60;99.90;;;;;;5068421;28;20152;-52
2022/10/15 06:18:37;;;;;;;15.35;13.75;;;13.60;99.90;;;;;;5072353;28;20178;-54
2022/10/15 06:21:03;;;;;;;16.42;13.98;;;13.60;99.90;;;;;;5066525;28;20012;-50
2022/10/15 06:23:29;;;;;;;19.60;16.40;;;13.70;99.90;;;;;;5074929;28;20029;-51
2022/10/15 06:25:55;;;;;;;20.05;15.82;;;13.70;99.90;;;;;;5065149;28;20669;-57
2022/10/15 06:28:21;;;;;;;18.88;16.50;;;13.70;99.90;;;;;;5075924;28;20024;-55
2022/10/15 06:30:47;;;;;;;17.27;15.40;;;13.70;99.90;;;;;;5064652;28;20553;-53
2022/10/15 06:33:14;;;;;;;17.23;14.77;;;13.70;99.90;;;;;;5074917;28;20021;-52
2022/10/15 06:35:40;;;;;;;18.77;16.08;;;13.70;99.90;;;;;;5065104;28;20025;-55
2022/10/15 06:38:06;;;;;;;17.80;15.20;;;13.70;99.90;;;;;;5076066;28;20020;-53
2022/10/15 06:40:32;;;;;;;17.67;15.73;;;13.70;99.90;;;;;;5063583;28;20027;-54
2022/10/15 06:43:15;;;;;;;15.52;13.50;;;13.80;99.90;;;;;;5076588;28;20028;-54
2022/10/15 06:45:41;;;;;;;18.75;15.57;;;13.80;99.90;;;;;;5063655;28;20024;-53
2022/10/15 06:48:07;;;;;;;17.67;15.77;;;13.80;99.90;;;;;;5075205;28;20036;-55
2022/10/15 06:50:35;;;;;;;15.98;14.27;;;13.80;99.90;;;;;;5064794;28;20017;-53
2022/10/15 06:53:03;;;;;;;16.23;14.13;;;13.90;99.90;;;;;;5073273;28;20024;-54
2022/10/15 06:55:29;;;;;;;19.13;14.57;;;13.90;99.90;;;;;;5065763;28;20038;-55
2022/10/15 06:57:55;;;;;;;15.88;13.60;;;14.00;99.90;;;;;;5071027;28;20111;-55
2022/10/15 07:00:22;;;;;;;15.75;13.55;;;13.90;99.90;;;;;;5068456;28;20054;-54
2022/10/15 07:02:48;;;;;;;15.65;13.55;;;14.00;99.90;;;;;;5068682;28;20020;-55
2022/10/15 07:05:14;;;;;;;14.48;12.77;;;14.00;99.90;;;;;;5071335;28;20025;-55
2022/10/15 07:07:39;;;;;;;15.25;13.13;;;14.00;99.90;;;;;;5065272;28;20113;-54
2022/10/15 07:10:05;;;;;;;15.45;12.75;;;14.00;99.90;;;;;;5073948;28;20097;-52
2022/10/15 07:12:31;;;;;;;15.25;13.10;;;14.10;99.90;;;;;;5064973;28;20020;-54
2022/10/15 07:14:56;;;;;;;16.80;13.60;;;14.10;99.90;;;;;;5074153;28;20414;-51
2022/10/15 07:17:22;;;;;;;14.68;11.95;;;14.10;99.90;;;;;;5063678;28;20028;-53
2022/10/15 07:19:48;;;;;;;15.68;13.50;;;14.10;99.90;;;;;;5073188;28;20753;-54
2022/10/15 07:22:13;;;;;;;16.08;13.70;;;14.10;99.90;;;;;;5082628;28;20016;-53
2022/10/15 07:24:39;;;;;;;13.45;12.05;;;14.20;99.90;;;;;;5070996;28;20052;-54
2022/10/15 07:27:04;;;;;;;17.52;14.00;;;14.10;99.90;;;;;;5083733;28;20112;-51
2022/10/15 07:29:30;;;;;;;13.95;12.50;;;14.20;99.90;;;;;;5058708;28;20105;-56
2022/10/15 07:31:56;;;;;;;15.10;12.43;;;14.20;99.90;;;;;;5064428;28;20032;-54
2022/10/15 07:34:22;;;;;;;13.50;11.90;;;14.20;99.90;;;;;;5072105;28;20034;-53
2022/10/15 07:36:47;;;;;;;15.50;13.02;;;14.20;99.90;;;;;;5066449;28;20036;-53
2022/10/15 07:39:13;;;;;;;12.82;11.05;;;14.20;99.90;;;;;;5069711;28;20027;-55
2022/10/15 07:41:39;;;;;;;13.20;11.27;;;14.20;99.90;;;;;;5071172;28;20025;-52
2022/10/15 07:44:04;;;;;;;13.70;11.52;;;14.30;99.90;;;;;;5079372;28;20405;-52
2022/10/15 07:46:30;;;;;;;13.93;11.35;;;14.30;99.90;;;;;;5074210;28;20071;-46
2022/10/15 07:48:56;;;;;;;15.80;13.18;;;14.30;99.90;;;;;;5081111;28;20842;-46
2022/10/15 07:51:21;;;;;;;15.75;13.50;;;14.30;99.90;;;;;;5083302;28;20036;-51
2022/10/15 07:53:47;;;;;;;15.77;13.63;;;14.30;99.90;;;;;;5082408;28;20027;-49
2022/10/15 07:56:14;;;;;;;14.93;12.95;;;14.40;99.90;;;;;;5071280;28;20028;-51
2022/10/15 07:58:41;;;;;;;14.20;12.30;;;14.40;99.90;;;;;;5083450;28;20035;-47
2022/10/15 08:01:09;;;;;;;13.10;11.63;;;14.40;99.90;;;;;;5070922;28;20032;-46
2022/10/15 08:03:36;;;;;;;12.90;11.60;;;14.40;99.90;;;;;;5083407;28;20024;-50
2022/10/15 08:06:04;;;;;;;18.02;15.60;;;14.40;99.90;;;;;;5070137;28;20387;-50
2022/10/15 08:08:30;;;;;;;15.88;14.20;;;14.50;99.90;;;;;;5082986;28;20074;-47
2022/10/15 08:10:56;;;;;;;15.55;13.85;;;14.60;99.90;;;;;;5070380;28;20047;-47
2022/10/15 08:13:22;;;;;;;16.58;14.18;;;14.60;99.90;;;;;;5082616;28;20081;-51
2022/10/15 08:15:48;;;;;;;17.30;15.10;;;14.80;99.90;;;;;;5073333;28;20504;-47
2022/10/15 08:18:13;;;;;;;17.55;14.73;;;14.80;99.90;;;;;;5077576;28;20035;-47
2022/10/15 08:20:39;;;;;;;16.38;14.45;;;14.90;99.90;;;;;;5074434;28;20162;-48
2022/10/15 08:23:05;;;;;;;16.27;14.57;;;14.90;99.90;;;;;;5076680;28;20042;-49
2022/10/15 08:25:31;;;;;;;16.08;14.35;;;15.00;99.90;;;;;;5076985;28;20464;-47
2022/10/15 08:27:57;;;;;;;15.18;13.35;;;15.10;99.90;;;;;;5073951;28;20063;-49
2022/10/15 08:30:23;;;;;;;15.40;13.38;;;15.10;99.90;;;;;;5082693;28;20475;-48
2022/10/15 08:32:49;;;;;;;14.10;12.60;;;15.10;99.90;;;;;;5074968;28;20034;-51
2022/10/15 08:35:14;;;;;;;13.93;12.45;;;15.20;99.90;;;;;;5084340;28;20021;-51
2022/10/15 08:37:40;;;;;;;12.77;11.48;;;15.20;99.90;;;;;;5074740;28;20428;-48
2022/10/15 08:40:06;;;;;;;13.18;11.82;;;15.30;99.90;;;;;;5085689;28;20028;-52
2022/10/15 08:42:41;;;;;;;13.35;11.95;;;15.40;99.90;;;;;;5070860;28;20037;-50
2022/10/15 08:45:26;;;;;;;13.98;12.35;;;15.40;99.90;;;;;;5065615;28;20024;-49
2022/10/15 08:48:02;;;;;;;11.02;9.93;;;15.40;99.90;;;;;;5078028;28;20036;-50
2022/10/15 08:50:39;;;;;;;14.60;12.10;;;15.40;99.90;;;;;;5067001;28;20048;-50
2022/10/15 08:53:10;;;;;;;11.80;10.60;;;15.40;99.90;;;;;;5077196;28;20040;-46
2022/10/15 08:55:39;;;;;;;14.82;12.07;;;15.50;99.90;;;;;;5066860;28;20024;-48
2022/10/15 08:58:29;;;;;;;13.35;11.95;;;15.50;99.90;;;;;;5078328;28;20032;-50
2022/10/15 09:01:01;;;;;;;12.90;11.25;;;15.50;99.90;;;;;;5066712;28;20028;-48
2022/10/15 09:04:00;;;;;;;12.48;11.10;;;15.50;99.90;;;;;;5077351;28;20107;-47
2022/10/15 09:06:35;;;;;;;12.13;10.93;;;15.60;99.90;;;;;;5066665;28;20555;-48
2022/10/15 09:09:41;;;;;;;12.48;10.88;;;15.60;99.90;;;;;;5075787;28;20038;-51
2022/10/15 09:12:19;;;;;;;12.75;11.43;;;15.70;99.90;;;;;;5080562;28;20047;-51
2022/10/15 09:14:46;;;;;;;11.55;10.35;;;15.70;99.90;;;;;;5079841;28;20024;-50
2022/10/15 09:17:19;;;;;;;12.30;10.68;;;15.70;99.90;;;;;;5081842;28;20429;-55
2022/10/15 09:19:48;;;;;;;11.65;10.45;;;15.70;99.90;;;;;;5079254;28;20023;-52
2022/10/15 09:22:17;;;;;;;12.45;11.07;;;15.70;99.90;;;;;;5081898;28;20032;-54
2022/10/15 09:24:43;;;;;;;12.13;10.82;;;15.80;99.90;;;;;;5076313;28;20065;-56
2022/10/15 09:27:30;;;;;;;10.95;9.60;;;15.90;99.90;;;;;;5066730;28;20062;-53
2022/10/15 09:30:25;;;;;;;9.95;8.95;;;15.90;99.90;;;;;;5077417;28;20066;-52
2022/10/15 09:32:58;;;;;;;8.40;7.60;;;15.90;99.90;;;;;;5062849;28;20488;-54
2022/10/15 09:35:45;;;;;;;9.77;8.77;;;16.00;99.90;;;;;;5078639;28;20371;-49
2022/10/15 09:38:48;;;;;;;9.27;8.38;;;16.00;99.90;;;;;;5078586;28;20862;-48
2022/10/15 09:41:52;;;;;;;9.98;8.98;;;16.10;99.90;;;;;;5083776;28;20114;-49
2022/10/15 09:44:21;;;;;;;10.80;9.70;;;16.10;99.90;;;;;;5077601;28;20379;-52
2022/10/15 09:46:49;;;;;;;8.48;7.65;;;16.20;99.90;;;;;;5065050;28;20032;-49
2022/10/15 09:49:26;;;;;;;9.75;8.50;;;16.20;99.90;;;;;;5077023;28;20032;-50
2022/10/15 09:52:16;;;;;;;9.25;8.35;;;16.20;99.90;;;;;;5065948;28;20052;-50
2022/10/15 09:55:08;;;;;;;7.93;7.13;;;16.20;99.90;;;;;;5077424;28;20364;-54
2022/10/15 09:57:36;;;;;;;8.55;6.57;;;16.30;99.90;;;;;;5065332;28;20043;-50
2022/10/15 10:00:07;;;;;;;6.78;6.18;;;16.30;99.90;;;;;;5074230;28;20024;-49
2022/10/15 10:02:32;;;;;;;8.20;7.40;;;16.30;99.90;;;;;;5085301;28;20028;-50
2022/10/15 10:05:30;;;;;;;8.27;7.47;;;16.20;99.90;;;;;;5072488;28;20036;-51
2022/10/15 10:08:20;;;;;;;8.70;7.80;;;16.20;99.90;;;;;;5085008;28;20071;-49
2022/10/15 10:10:57;;;;;;;8.05;7.25;;;16.10;99.90;;;;;;5075394;28;20035;-49
2022/10/15 10:13:30;;;;;;;8.88;7.32;;;16.10;99.90;;;;;;5065105;28;20070;-48
2022/10/15 10:16:02;;;;;;;7.88;7.07;;;16.10;99.90;;;;;;5076385;28;20024;-45
2022/10/15 10:18:30;;;;;;;7.65;6.70;;;16.10;99.90;;;;;;5064838;28;20475;-49
2022/10/15 10:21:01;;;;;;;10.73;7.10;;;16.10;99.90;;;;;;5076000;28;20073;-50
2022/10/15 10:23:38;;;;;;;8.23;7.38;;;16.10;99.90;;;;;;5064649;28;20025;-52
2022/10/15 10:26:09;;;;;;;6.75;6.05;;;16.10;99.90;;;;;;5073386;28;20058;-49
2022/10/15 10:28:56;;;;;;;8.75;6.70;;;16.10;99.90;;;;;;5084773;28;20124;-50
2022/10/15 10:31:30;;;;;;;7.95;6.38;;;16.00;99.90;;;;;;5072360;28;20016;-45
2022/10/15 10:34:00;;;;;;;6.85;6.15;;;16.00;99.90;;;;;;5083890;28;20077;-48
2022/10/15 10:36:33;;;;;;;8.35;6.20;;;16.10;99.90;;;;;;5075183;28;20099;-50
2022/10/15 10:39:13;;;;;;;6.78;6.07;;;16.10;99.90;;;;;;5062312;28;20548;-46
2022/10/15 10:41:57;;;;;;;7.35;6.55;;;16.10;99.90;;;;;;5075615;28;20035;-51
2022/10/15 10:44:28;;;;;;;6.93;6.22;;;16.10;99.90;;;;;;5065193;28;20364;-48
2022/10/15 10:47:02;;;;;;;6.38;5.78;;;16.10;99.90;;;;;;5075655;28;20643;-47
2022/10/15 10:49:32;;;;;;;6.80;6.10;;;16.10;99.90;;;;;;5063021;28;20063;-50
2022/10/15 10:51:57;;;;;;;6.97;5.78;;;16.10;99.90;;;;;;5074115;28;20298;-48
2022/10/15 10:54:24;;;;;;;6.82;5.15;;;16.00;99.90;;;;;;5063598;28;20661;-50
2022/10/15 10:56:52;;;;;;;7.10;6.18;;;16.00;99.90;;;;;;5076780;28;20032;-51
2022/10/15 10:59:35;;;;;;;6.95;6.25;;;16.00;99.90;;;;;;5063051;28;20029;-47
2022/10/15 11:02:03;;;;;;;7.65;6.60;;;16.10;99.90;;;;;;5076305;28;20140;-51
2022/10/15 11:04:32;;;;;;;7.93;6.10;;;16.00;99.90;;;;;;5064185;28;20028;-47
2022/10/15 11:07:24;;;;;;;8.13;6.00;;;16.00;99.90;;;;;;5069292;28;20086;-47
2022/10/15 11:09:56;;;;;;;7.70;5.70;;;16.00;99.90;;;;;;5084895;28;20019;-52
2022/10/15 11:12:47;;;;;;;5.38;4.80;;;16.00;99.90;;;;;;5079170;28;20035;-52
2022/10/15 11:15:37;;;;;;;7.28;6.40;;;16.10;99.90;;;;;;5064189;28;20094;-48
2022/10/15 11:18:07;;;;;;;7.43;5.78;;;16.10;99.90;;;;;;5082332;28;20108;-48
2022/10/15 11:21:03;;;;;;;6.43;5.68;;;16.00;99.90;;;;;;5081655;28;20795;-50
2022/10/15 11:24:13;;;;;;;6.50;5.05;;;16.00;99.90;;;;;;5072583;28;20028;-45
2022/10/15 11:27:03;;;;;;;5.85;5.18;;;16.00;99.90;;;;;;5051783;28;20059;-52
2022/10/15 11:29:49;;;;;;;5.05;4.55;;;16.10;99.90;;;;;;5079355;28;20024;-48
2022/10/15 11:32:34;;;;;;;5.00;4.50;;;16.10;99.90;;;;;;5074483;28;20028;-53
2022/10/15 11:35:23;;;;;;;4.93;4.15;;;16.10;99.90;;;;;;5081775;28;20028;-49
2022/10/15 11:37:52;;;;;;;6.05;4.60;;;16.10;99.90;;;;;;5071028;28;20032;-50
2022/10/15 11:40:31;;;;;;;5.82;4.30;;;16.10;99.90;;;;;;5083604;28;20042;-49
2022/10/15 11:43:34;;;;;;;4.50;3.97;;;16.10;99.90;;;;;;5081031;28;20086;-53
2022/10/15 11:46:11;;;;;;;4.93;3.95;;;16.10;99.90;;;;;;5082417;28;20028;-49
2022/10/15 11:48:44;;;;;;;5.57;4.43;;;16.10;99.90;;;;;;5075151;28;20574;-50
2022/10/15 11:51:16;;;;;;;7.65;4.53;;;16.20;99.90;;;;;;5063159;28;20025;-48
2022/10/15 11:54:03;;;;;;;4.90;3.90;;;16.20;99.90;;;;;;5075629;28;20463;-49
2022/10/15 11:56:34;;;;;;;4.32;3.53;;;16.20;99.90;;;;;;5063024;28;20028;-53
2022/10/15 11:59:13;;;;;;;3.90;3.50;;;16.30;99.90;;;;;;5076022;28;20031;-49
2022/10/15 12:01:47;;;;;;;4.13;3.72;;;16.30;99.90;;;;;;5063593;28;20024;-52
2022/10/15 12:04:18;;;;;;;4.43;3.53;;;16.30;99.90;;;;;;5072300;28;20454;-52
2022/10/15 12:06:48;;;;;;;3.90;3.17;;;16.40;99.90;;;;;;5087817;28;20471;-53
2022/10/15 12:09:21;;;;;;;3.10;2.85;;;16.40;99.90;;;;;;5073511;28;20380;-53
2022/10/15 12:12:05;;;;;;;3.47;3.17;;;16.40;99.90;;;;;;5087815;28;20028;-55
2022/10/15 12:14:51;;;;;;;3.00;2.72;;;16.40;99.90;;;;;;5074643;28;20024;-50
2022/10/15 12:17:37;;;;;;;3.15;2.85;;;16.40;99.90;;;;;;5086281;28;20028;-55
2022/10/15 12:20:12;;;;;;;3.42;2.88;;;16.40;99.90;;;;;;5076839;28;20025;-49
2022/10/15 12:22:51;;;;;;;3.70;3.25;;;16.50;99.90;;;;;;5085977;28;20024;-50
2022/10/15 12:25:32;;;;;;;4.03;2.80;;;16.50;99.90;;;;;;5073028;28;20032;-47
2022/10/15 12:28:04;;;;;;;4.07;3.08;;;16.50;99.90;;;;;;5085258;28;20070;-53
2022/10/15 12:30:33;;;;;;;3.55;2.75;;;16.60;99.90;;;;;;5074976;28;20811;-52
2022/10/15 12:33:00;;;;;;;2.70;2.50;;;16.60;99.90;;;;;;5086056;28;20032;-52
2022/10/15 12:35:37;;;;;;;4.32;2.72;;;16.70;99.90;;;;;;5075429;28;20297;-51
2022/10/15 12:38:31;;;;;;;2.63;2.40;;;16.60;99.90;;;;;;5085632;28;20577;-53
2022/10/15 12:40:59;;;;;;;2.35;2.15;;;16.70;99.90;;;;;;5078217;28;20025;-50
2022/10/15 12:43:25;;;;;;;2.75;2.45;;;16.70;99.90;;;;;;5077892;28;20050;-52
2022/10/15 12:46:00;;;;;;;2.25;2.05;;;16.70;99.90;;;;;;5074897;28;20031;-52
2022/10/15 12:48:43;;;;;;;3.03;2.30;;;16.80;99.90;;;;;;5085306;28;20028;-53
2022/10/15 12:51:15;;;;;;;2.53;2.00;;;16.80;99.90;;;;;;5080721;28;20486;-54
2022/10/15 12:53:42;;;;;;;2.72;2.05;;;16.90;99.90;;;;;;5085295;28;20471;-53